createdAt,value
2022-11-04T00:02:55.226Z,12.39
2022-11-04T00:06:03.226Z,12.40
2022-11-04T00:09:11.056Z,12.40
2022-11-04T00:12:26.359Z,12.37
2022-11-04T00:15:50.135Z,12.35
2022-11-04T00:18:56.247Z,12.34
2022-11-04T00:22:19.975Z,12.35
2022-11-04T00:25:44.068Z,12.35
2022-11-04T00:28:53.192Z,12.32
2022-11-04T00:32:17.275Z,12.31
2022-11-04T00:35:24.259Z,12.29
2022-11-04T00:38:30.393Z,12.28
2022-11-04T00:41:36.401Z,12.27
2022-11-04T00:44:42.485Z,12.27
2022-11-04T00:47:48.738Z,12.25
2022-11-04T00:50:54.753Z,12.21
2022-11-04T00:54:01.096Z,12.16
2022-11-04T00:57:05.571Z,12.13
2022-11-04T01:00:14.239Z,12.09
2022-11-04T01:03:20.347Z,12.11
2022-11-04T01:06:27.886Z,12.09
2022-11-04T01:09:34.233Z,12.03
2022-11-04T01:12:38.642Z,12.00
2022-11-04T01:15:44.806Z,11.96
2022-11-04T01:18:51.059Z,11.98
2022-11-04T01:21:55.504Z,11.94
2022-11-04T01:25:01.606Z,11.86
2022-11-04T01:28:07.921Z,11.85
2022-11-04T01:31:16.182Z,11.85
2022-11-04T01:34:22.259Z,11.84
2022-11-04T01:37:28.276Z,11.81
2022-11-04T01:40:39.690Z,11.81
2022-11-04T01:43:52.974Z,11.83
2022-11-04T01:46:59.964Z,11.88
2022-11-04T01:50:09.835Z,11.94
2022-11-04T01:53:20.268Z,11.98
2022-11-04T01:56:27.567Z,12.00
2022-11-04T01:59:37.854Z,12.01
2022-11-04T02:02:56.076Z,12.04
2022-11-04T02:06:03.783Z,12.04
2022-11-04T02:12:38.519Z,12.04
2022-11-04T02:15:54.110Z,12.07
2022-11-04T02:19:11.770Z,12.10
2022-11-04T02:22:38.187Z,12.14
2022-11-04T02:26:18.975Z,12.16
2022-11-04T02:29:47.654Z,12.17
2022-11-04T02:33:20.462Z,12.18
2022-11-04T02:36:35.298Z,12.17
2022-11-04T02:39:50.989Z,12.13
2022-11-04T02:43:02.698Z,12.07
2022-11-04T02:46:17.465Z,12.03
2022-11-04T02:49:29.841Z,12.00
2022-11-04T02:52:48.699Z,11.98
2022-11-04T02:55:59.922Z,11.96
2022-11-04T02:59:11.101Z,11.94
2022-11-04T03:02:21.448Z,11.97
2022-11-04T03:05:32.519Z,12.00
2022-11-04T03:08:41.584Z,12.03
2022-11-04T03:11:52.799Z,12.07
2022-11-04T03:15:05.167Z,12.11
2022-11-04T03:18:19.725Z,12.14
2022-11-04T03:21:29.425Z,12.19
2022-11-04T03:24:35.820Z,12.23
2022-11-04T03:27:45.772Z,12.27
2022-11-04T03:30:54.349Z,12.26
2022-11-04T03:34:00.655Z,12.28
2022-11-04T03:37:05.292Z,12.26
2022-11-04T03:40:13.872Z,12.22
2022-11-04T03:43:23.907Z,12.25
2022-11-04T03:46:30.117Z,12.29
2022-11-04T03:49:36.390Z,12.30
2022-11-04T03:52:41.241Z,12.32
2022-11-04T03:56:00.806Z,12.31
2022-11-04T03:59:19.360Z,12.32
2022-11-04T04:02:35.356Z,12.32
2022-11-04T04:05:46.746Z,12.34
2022-11-04T04:08:57.179Z,12.36
2022-11-04T04:12:10.332Z,12.38
2022-11-04T04:15:23.990Z,12.38
2022-11-04T04:18:37.305Z,12.37
2022-11-04T04:21:48.486Z,12.35
2022-11-04T04:25:18.306Z,12.34
2022-11-04T04:28:25.577Z,12.34
2022-11-04T04:31:57.746Z,12.34
2022-11-04T04:35:21.647Z,12.33
2022-11-04T04:38:47.061Z,12.27
2022-11-04T04:42:12.579Z,12.18
2022-11-04T04:45:25.505Z,12.14
2022-11-04T04:48:31.751Z,12.13
2022-11-04T04:51:40.652Z,12.14
2022-11-04T04:54:47.584Z,12.15
2022-11-04T04:57:53.852Z,12.18
2022-11-04T05:00:58.416Z,12.24
2022-11-04T05:04:04.612Z,12.25
2022-11-04T05:07:10.650Z,12.31
2022-11-04T05:10:18.031Z,12.38
2022-11-04T05:13:30.423Z,12.42
2022-11-04T05:16:40.547Z,12.43
2022-11-04T05:19:47.230Z,12.44
2022-11-04T05:22:51.887Z,12.46
2022-11-04T05:26:01.160Z,12.46
2022-11-04T05:29:07.139Z,12.53
2022-11-04T05:32:13.325Z,12.60
2022-11-04T05:35:19.898Z,12.65
2022-11-04T05:38:26.250Z,12.71
2022-11-04T05:41:32.473Z,12.78
2022-11-04T05:44:36.974Z,12.83
2022-11-04T05:47:43.082Z,12.84
2022-11-04T05:50:49.249Z,12.90
2022-11-04T05:53:55.936Z,12.93
2022-11-04T05:57:01.976Z,12.92
2022-11-04T06:00:10.120Z,12.49
2022-11-04T06:03:16.575Z,11.95
2022-11-04T06:06:24.485Z,11.68
2022-11-04T06:09:40.191Z,11.98
2022-11-04T06:12:46.703Z,12.30
2022-11-04T06:15:52.770Z,12.49
2022-11-04T06:19:01.716Z,12.64
2022-11-04T06:22:13.038Z,12.76
2022-11-04T06:25:19.256Z,12.87
2022-11-04T06:28:23.826Z,12.95
2022-11-04T06:31:29.899Z,12.99
2022-11-04T06:34:36.006Z,13.07
2022-11-04T06:37:42.086Z,13.12
2022-11-04T06:40:48.153Z,13.17
2022-11-04T06:43:54.283Z,13.20
2022-11-04T06:47:00.548Z,13.24
2022-11-04T06:50:05.339Z,13.30
2022-11-04T06:53:11.711Z,13.29
2022-11-04T06:56:17.987Z,13.34
2022-11-04T06:59:24.117Z,13.29
2022-11-04T07:02:30.514Z,12.74
2022-11-04T07:05:37.703Z,12.22
2022-11-04T07:08:43.825Z,11.95
2022-11-04T07:11:50.735Z,12.24
2022-11-04T07:14:56.926Z,12.55
2022-11-04T07:18:01.732Z,12.76
2022-11-04T07:21:10.217Z,12.89
2022-11-04T07:24:16.631Z,13.05
2022-11-04T07:27:22.783Z,13.19
2022-11-04T07:30:28.971Z,13.30
2022-11-04T07:33:35.998Z,13.38
2022-11-04T07:36:42.021Z,13.47
2022-11-04T07:39:48.114Z,13.55
2022-11-04T07:42:54.217Z,13.63
2022-11-04T07:46:05.437Z,13.51
2022-11-04T07:49:11.528Z,12.98
2022-11-04T07:52:17.694Z,12.56
2022-11-04T07:55:22.166Z,12.24
2022-11-04T07:58:31.152Z,12.01
2022-11-04T08:01:37.368Z,11.96
2022-11-04T08:04:43.490Z,12.42
2022-11-04T08:07:49.542Z,12.82
2022-11-04T08:11:00.631Z,13.11
2022-11-04T08:14:07.732Z,13.34
2022-11-04T08:17:13.819Z,13.54
2022-11-04T08:20:20.238Z,13.71
2022-11-04T08:23:26.434Z,13.88
2022-11-04T08:26:33.068Z,14.04
2022-11-04T08:29:39.770Z,14.20
2022-11-04T08:32:45.744Z,14.36
2022-11-04T08:35:51.986Z,14.38
2022-11-04T08:38:56.964Z,13.98
2022-11-04T08:42:03.331Z,13.63
2022-11-04T08:45:10.729Z,13.43
2022-11-04T08:48:17.654Z,13.43
2022-11-04T08:51:26.614Z,13.91
2022-11-04T08:54:32.826Z,14.40
2022-11-04T08:57:37.533Z,14.76
2022-11-04T09:00:43.760Z,14.99
2022-11-04T09:03:48.712Z,15.05
2022-11-04T09:06:56.415Z,14.67
2022-11-04T09:10:02.805Z,14.38
2022-11-04T09:13:10.898Z,14.20
2022-11-04T09:16:17.835Z,14.20
2022-11-04T09:19:23.918Z,14.71
2022-11-04T09:22:30.140Z,15.16
2022-11-04T09:25:34.670Z,15.42
2022-11-04T09:28:41.645Z,15.15
2022-11-04T09:31:50.022Z,14.86
2022-11-04T09:34:56.244Z,14.67
2022-11-04T09:38:02.298Z,14.54
2022-11-04T09:41:31.962Z,14.44
2022-11-04T09:45:14.935Z,14.56
2022-11-04T09:48:21.768Z,15.18
2022-11-04T09:55:02.327Z,15.33
2022-11-04T09:58:11.082Z,15.09
2022-11-04T10:01:29.135Z,14.97
2022-11-04T10:04:50.973Z,14.89
2022-11-04T10:08:22.002Z,14.85
2022-11-04T10:11:36.270Z,15.00
2022-11-04T10:14:58.018Z,15.62
2022-11-04T10:18:17.264Z,16.02
2022-11-04T10:21:37.469Z,15.83
2022-11-04T10:24:51.189Z,15.62
2022-11-04T10:27:58.172Z,15.50
2022-11-04T10:31:05.317Z,15.45
2022-11-04T10:34:18.905Z,15.43
2022-11-04T10:37:26.647Z,15.42
2022-11-04T10:40:39.007Z,15.45
2022-11-04T10:43:45.697Z,15.50
2022-11-04T10:47:00.676Z,15.53
2022-11-04T10:50:28.875Z,15.59
2022-11-04T10:53:37.839Z,15.66
2022-11-04T10:56:47.058Z,15.74
2022-11-04T10:59:58.781Z,15.84
2022-11-04T11:03:05.868Z,15.92
2022-11-04T11:06:22.340Z,16.00
2022-11-04T11:09:30.773Z,16.08
2022-11-04T11:12:51.788Z,16.15
2022-11-04T11:16:13.453Z,16.22
2022-11-04T11:19:22.389Z,16.29
2022-11-04T11:22:38.863Z,16.34
2022-11-04T11:25:51.900Z,16.39
2022-11-04T11:29:02.586Z,16.44
2022-11-04T11:32:22.268Z,16.48
2022-11-04T11:35:33.943Z,16.54
2022-11-04T11:38:40.810Z,16.58
2022-11-04T11:41:57.254Z,16.64
2022-11-04T11:45:10.663Z,16.69
2022-11-04T11:48:34.038Z,16.75
2022-11-04T11:51:41.669Z,16.80
2022-11-04T11:54:52.705Z,16.84
2022-11-04T12:01:42.648Z,16.87
2022-11-04T12:12:22.387Z,16.90
2022-11-04T12:15:55.506Z,16.90
2022-11-04T12:19:21.764Z,16.92
2022-11-04T12:22:39.274Z,16.94
2022-11-04T12:25:54.010Z,16.95
2022-11-04T12:29:14.420Z,16.98
2022-11-04T12:32:29.534Z,17.02
2022-11-04T12:35:50.723Z,17.06
2022-11-04T12:39:25.455Z,17.09
2022-11-04T12:42:42.168Z,17.12
2022-11-04T12:46:01.287Z,17.14
2022-11-04T12:49:37.064Z,17.15
2022-11-04T12:53:03.760Z,17.16
2022-11-04T12:56:13.205Z,17.15
2022-11-04T12:59:40.673Z,17.13
2022-11-04T13:02:51.322Z,17.08
2022-11-04T13:06:04.631Z,17.03
2022-11-04T13:09:15.210Z,16.97
2022-11-04T13:12:24.856Z,16.91
2022-11-04T13:15:35.219Z,16.87
2022-11-04T13:18:45.845Z,16.82
2022-11-04T13:21:52.889Z,16.77
2022-11-04T13:25:03.683Z,16.71
2022-11-04T13:28:14.572Z,16.64
2022-11-04T13:31:29.384Z,16.59
2022-11-04T13:34:46.140Z,16.53
2022-11-04T13:38:00.446Z,16.47
2022-11-04T13:41:31.222Z,16.41
2022-11-04T13:44:43.657Z,16.36
2022-11-04T13:47:54.402Z,16.32
2022-11-04T13:51:04.083Z,16.26
2022-11-04T13:54:24.928Z,16.22
2022-11-04T13:57:32.942Z,16.17
2022-11-04T14:00:40.202Z,16.12
2022-11-04T14:04:03.119Z,16.07
2022-11-04T14:07:10.838Z,16.02
2022-11-04T14:10:46.742Z,15.96
2022-11-04T14:14:17.482Z,15.89
2022-11-04T14:17:58.466Z,15.83
2022-11-04T14:21:11.535Z,15.75
2022-11-04T14:24:20.334Z,15.69
2022-11-04T14:27:36.118Z,15.61
2022-11-04T14:30:45.889Z,15.54
2022-11-04T14:33:56.213Z,15.47
2022-11-04T14:37:04.157Z,15.40
2022-11-04T14:40:28.829Z,15.33
2022-11-04T14:43:36.929Z,15.28
2022-11-04T14:46:46.790Z,15.21
2022-11-04T14:50:01.962Z,15.26
2022-11-04T14:53:12.604Z,15.77
2022-11-04T14:56:24.320Z,16.21
2022-11-04T14:59:31.554Z,16.51
2022-11-04T15:02:38.633Z,16.62
2022-11-04T15:05:50.860Z,16.26
2022-11-04T15:08:57.890Z,15.89
2022-11-04T15:12:30.364Z,15.63
2022-11-04T15:15:40.327Z,15.40
2022-11-04T15:18:47.134Z,15.23
2022-11-04T15:21:53.279Z,15.05
2022-11-04T15:25:00.358Z,15.02
2022-11-04T15:28:15.014Z,15.44
2022-11-04T15:31:23.737Z,15.87
2022-11-04T15:34:31.824Z,16.16
2022-11-04T15:37:41.699Z,16.37
2022-11-04T15:40:48.772Z,16.43
2022-11-04T15:43:55.699Z,16.01
2022-11-04T15:47:03.820Z,15.62
2022-11-04T15:50:23.657Z,15.34
2022-11-04T15:53:29.885Z,15.09
2022-11-04T15:56:42.249Z,15.02
2022-11-04T15:59:53.821Z,15.44
2022-11-04T16:03:02.041Z,15.84
2022-11-04T16:06:10.018Z,16.09
2022-11-04T16:09:28.199Z,16.27
2022-11-04T16:12:38.334Z,16.28
2022-11-04T16:15:48.186Z,15.82
2022-11-04T16:18:57.443Z,15.42
2022-11-04T16:22:09.275Z,15.14
2022-11-04T16:25:24.801Z,14.94
2022-11-04T16:28:36.394Z,14.89
2022-11-04T16:31:42.701Z,15.30
2022-11-04T16:34:53.966Z,15.64
2022-11-04T16:38:03.613Z,15.88
2022-11-04T16:41:09.883Z,16.04
2022-11-04T16:44:22.829Z,16.19
2022-11-04T16:47:30.124Z,16.31
2022-11-04T16:50:36.207Z,16.41
2022-11-04T16:53:40.514Z,16.33
2022-11-04T16:56:46.826Z,15.83
2022-11-04T16:59:53.009Z,15.40
2022-11-04T17:02:57.529Z,15.09
2022-11-04T17:06:03.649Z,14.83
2022-11-04T17:09:12.030Z,14.75
2022-11-04T17:12:18.080Z,15.11
2022-11-04T17:15:24.520Z,15.48
2022-11-04T17:18:33.829Z,15.71
2022-11-04T17:21:40.506Z,15.89
2022-11-04T17:24:46.576Z,16.01
2022-11-04T17:27:51.135Z,16.12
2022-11-04T17:30:57.254Z,16.16
2022-11-04T17:34:01.831Z,16.26
2022-11-04T17:37:07.903Z,16.30
2022-11-04T17:40:15.099Z,16.25
2022-11-04T17:43:38.629Z,15.73
2022-11-04T17:46:47.866Z,15.24
2022-11-04T17:49:53.990Z,14.92
2022-11-04T17:52:58.554Z,14.67
2022-11-04T17:56:04.837Z,14.44
2022-11-04T17:59:12.528Z,14.37
2022-11-04T18:02:18.966Z,14.77
2022-11-04T18:05:25.226Z,15.12
2022-11-04T18:08:29.684Z,15.35
2022-11-04T18:11:53.355Z,15.49
2022-11-04T18:14:59.433Z,15.66
2022-11-04T18:18:04.045Z,15.79
2022-11-04T18:21:11.582Z,15.85
2022-11-04T18:24:19.430Z,15.95
2022-11-04T18:27:25.707Z,16.05
2022-11-04T18:30:31.906Z,16.12
2022-11-04T18:33:36.481Z,16.17
2022-11-04T18:36:42.921Z,16.20
2022-11-04T18:39:48.995Z,16.27
2022-11-04T18:42:53.561Z,16.30
2022-11-04T18:46:00.031Z,16.28
2022-11-04T18:49:06.158Z,16.30
2022-11-04T18:52:10.652Z,16.30
2022-11-04T18:55:16.966Z,16.27
2022-11-04T18:58:25.277Z,16.29
2022-11-04T19:01:33.900Z,16.30
2022-11-04T19:04:40.266Z,16.30
2022-11-04T19:07:44.733Z,16.29
2022-11-04T19:11:00.692Z,16.26
2022-11-04T19:14:09.831Z,16.29
2022-11-04T19:17:16.217Z,16.28
2022-11-04T19:20:23.809Z,16.26
2022-11-04T19:23:31.402Z,16.25
2022-11-04T19:26:38.389Z,16.24
2022-11-04T19:29:44.507Z,16.24
2022-11-04T19:32:49.082Z,16.22
2022-11-04T19:35:56.324Z,16.18
2022-11-04T19:39:03.353Z,16.17
2022-11-04T19:42:28.256Z,16.16
2022-11-04T19:45:34.707Z,16.15
2022-11-04T19:48:40.809Z,16.14
2022-11-04T19:51:45.729Z,16.13
2022-11-04T19:54:51.845Z,16.08
2022-11-04T19:57:56.530Z,16.09
2022-11-04T20:01:07.847Z,16.06
2022-11-04T20:04:14.909Z,16.06
2022-11-04T20:07:21.057Z,16.06
2022-11-04T20:10:25.555Z,16.04
2022-11-04T20:13:47.835Z,15.97
2022-11-04T20:16:54.119Z,15.95
2022-11-04T20:20:00.200Z,15.94
2022-11-04T20:23:06.222Z,15.94
2022-11-04T20:26:20.245Z,15.92
2022-11-04T20:29:26.916Z,15.90
2022-11-04T20:32:31.453Z,15.86
2022-11-04T20:35:38.238Z,15.78
2022-11-04T20:38:44.533Z,15.77
2022-11-04T20:41:50.666Z,15.76
2022-11-04T20:44:56.811Z,15.76
2022-11-04T20:48:01.353Z,15.75
2022-11-04T20:51:12.228Z,15.73
2022-11-04T20:54:18.438Z,15.74
2022-11-04T20:57:22.878Z,15.72
2022-11-04T21:00:29.797Z,15.65
2022-11-04T21:03:36.183Z,15.61
2022-11-04T21:06:42.943Z,15.55
2022-11-04T21:09:51.237Z,15.55
2022-11-04T21:12:57.233Z,15.55
2022-11-04T21:16:03.842Z,15.53
2022-11-04T21:19:11.981Z,15.53
2022-11-04T21:22:18.030Z,15.54
2022-11-04T21:25:24.222Z,15.55
2022-11-04T21:28:28.693Z,15.56
2022-11-04T21:31:36.095Z,15.56
2022-11-04T21:34:42.192Z,15.59
2022-11-04T21:37:46.640Z,15.61
2022-11-04T21:40:52.982Z,15.59
2022-11-04T21:44:00.310Z,15.60
2022-11-04T21:47:06.513Z,15.57
2022-11-04T21:50:16.765Z,15.56
2022-11-04T21:53:24.054Z,15.51
2022-11-04T21:56:33.273Z,15.50
2022-11-04T21:59:39.370Z,15.48
2022-11-04T22:02:47.491Z,15.45
2022-11-04T22:06:01.973Z,15.43
2022-11-04T22:09:10.186Z,15.43
2022-11-04T22:12:16.209Z,15.44
2022-11-04T22:15:36.848Z,15.45
2022-11-04T22:18:43.832Z,15.46
2022-11-04T22:21:50.262Z,15.47
2022-11-04T22:25:03.428Z,15.48
2022-11-04T22:28:09.688Z,15.48
2022-11-04T22:31:18.008Z,15.47
2022-11-04T22:34:25.072Z,15.48
2022-11-04T22:37:31.274Z,15.50
2022-11-04T22:40:35.886Z,15.51
2022-11-04T22:43:42.798Z,15.49
2022-11-04T22:46:48.907Z,15.51
2022-11-04T22:49:53.377Z,15.51
2022-11-04T22:52:59.400Z,15.49
2022-11-04T22:56:06.934Z,15.51
2022-11-04T22:59:13.215Z,15.51
2022-11-04T23:02:19.508Z,15.52
2022-11-04T23:05:27.844Z,15.52
2022-11-04T23:08:35.348Z,15.54
2022-11-04T23:11:59.029Z,15.54
2022-11-04T23:15:23.112Z,15.54
2022-11-04T23:18:44.843Z,15.54
2022-11-04T23:22:08.721Z,15.51
2022-11-04T23:25:15.395Z,15.49
2022-11-04T23:28:35.281Z,15.49
2022-11-04T23:31:41.702Z,15.49
2022-11-04T23:35:05.530Z,15.49
2022-11-04T23:38:11.920Z,15.50
2022-11-04T23:41:35.881Z,15.51
2022-11-04T23:44:59.657Z,15.51
2022-11-04T23:48:29.782Z,15.51
2022-11-04T23:51:53.560Z,15.49
2022-11-04T23:55:17.647Z,15.45
2022-11-04T23:58:41.521Z,15.42
